Airfield :
LOGIN :

Register | Disclaimer

   EN    FR    IT 

 










Legend :    VFR   Marginal VFR   IFR   Intensive IFR   Very Intensive IFR
Visi :
Ceiling :
>= 8 km
>= 3000ft
5 to 8 km
1000 to 3000 ft
1500m to 5 km
500 to 1000 ft
800 to 1500m
200 to 500 ft
< 800m
< 200 ft
Symbols :   Thunderstorms  Fog  Heavy snow  Heavy precipitations  Wind > 20 kt
SIGMETs :     Misc.  Thunderstorms  Icing  Turbulence  Mountain Waves  Volcanic Ashes







- Airport Elevation : 1115 ft
- IATA code : GRZ


LOWG - Graz

CURRENT METAR :
  • 201850Z AUTO 02002KT 9999 FEW120 OVC140 M01/M04 Q1006 R17/19//95 NOSIG

EXPIRED METARs :
  • 201820Z AUTO 32003KT 9999 FEW130 BKN140 M00/M03 Q1007 R17/19//95 NOSIG
  • 201750Z 35004KT 9999 FEW060 SCT140 BKN250 M00/M03 Q1007 R17/19//95 NOSIG
  • 201720Z 35004KT 9999 FEW060 SCT140 BKN250 M00/M03 Q1007 R17/19//95 NOSIG
  • 201650Z 06002KT 9999 FEW060 BKN250 00/M03 Q1007 R17/19//95 NOSIG
  • 201620Z 36006KT 9999 FEW060 BKN300 01/M03 Q1008 R17/19//95 NOSIG

TAF TAF LOWG
Valid from the 20 at 18:00 until the 21 at 18:00 UTC


201715Z 2018/2118 VRB02KT 9999 FEW050 SCT120 TX04/2113Z TNM01/2104Z
TEMPO 2021/2106 0800 FZBCFG NSC
PROB30
TEMPO 2022/2103 4000 -SHSN SCT040 BKN060
TEMPO 2107/2112 35015G25KT
PROB30
TEMPO 2109/2112 35028G40KT
No reported NOTAMs for that airfield.



MET'MAP, your aeronautical weather chart ! - Copyright ORBIFLY December 2007 - Disclaimer

ORBIFLY MET'MAP TEAM :

Programming & Development : Alexandra Zaïnal
Concept & Development : Baudouin d'Aumeries
Co-Development & Prog : Marc-Olivier Méhu
Technical & hardware support : Manuel Goepfert

Contact : metmap@orbifly.com




SOURCES & CREDITS :

   NOAA